Terminal Aerodrome Forecast
Issued by NWS

Home | Current Version | Previous Version | Text Only | Print | Product List | Glossary Off
Versions: 1 2 3 4 5 6 7 8 9 10 11 12 13

681
FTUS43 KMPX 242320
TAFRWF
TAF
KRWF 242320Z 2500/2524 05006KT P6SM SCT035 BKN045
     FM250200 12005KT P6SM SCT070
     FM251300 14013KT P6SM BKN110
     FM251700 16014G22KT P6SM BKN050 BKN100=

USA.gov is the U.S. government's official web portal to all federal, state and local government web resources and services.